Time;durP1;ratioP1;P1;durP2;ratioP2;P2;SDS_P1;SDS_P2;PMS_P1;PMS_P2;Temp;Humidity;BMP_temperature;BMP_pressure;BME280_temperature;BME280_humidity;BME280_pressure;Samples;Min_cycle;Max_cycle;Signal;HPM_P1;HPM_P2
2022/11/15 00:02:18;;;;;;;;;;;19.90;52.70;;;;;;5052781;28;19916;-72
2022/11/15 00:04:43;;;;;;;;;;;19.90;52.80;;;;;;5051737;28;20408;-72
2022/11/15 00:07:08;;;;;;;;;;;19.90;52.80;;;;;;5050219;28;20376;-72
2022/11/15 00:09:34;;;;;;;;;;;19.80;52.70;;;;;;5039201;28;20292;-72
2022/11/15 00:11:59;;;;;;;;;;;19.80;52.70;;;;;;5034295;28;20277;-73
2022/11/15 00:14:25;;;;;;;;;;;19.70;52.70;;;;;;5045882;28;20336;-72
2022/11/15 00:16:50;;;;;;;;;;;19.70;52.80;;;;;;5052130;28;20276;-73
2022/11/15 00:19:16;;;;;;;;;;;19.70;52.90;;;;;;5047442;28;20007;-72
2022/11/15 00:21:41;;;;;;;;;;;19.70;52.80;;;;;;5036298;28;20426;-73
2022/11/15 00:24:07;;;;;;;;;;;19.70;52.80;;;;;;5054096;28;19948;-73
2022/11/15 00:26:32;;;;;;;;;;;19.70;52.70;;;;;;5052960;28;19909;-73
2022/11/15 00:28:57;;;;;;;;;;;19.70;52.70;;;;;;5053230;28;19909;-71
2022/11/15 00:31:23;;;;;;;;;;;19.70;52.70;;;;;;5054019;28;19923;-71
2022/11/15 00:33:48;;;;;;;;;;;19.60;52.70;;;;;;5053851;28;19924;-73
2022/11/15 00:36:14;;;;;;;;;;;19.60;52.70;;;;;;5043334;28;19917;-73
2022/11/15 00:38:40;;;;;;;;;;;19.60;52.70;;;;;;5051329;28;20245;-72
2022/11/15 00:41:06;;;;;;;;;;;19.60;52.60;;;;;;5053126;28;19916;-72
2022/11/15 00:43:31;;;;;;;;;;;19.60;52.60;;;;;;5046661;28;20035;-72
2022/11/15 00:45:57;;;;;;;;;;;19.70;52.70;;;;;;5034541;28;19913;-72
2022/11/15 00:48:22;;;;;;;;;;;19.70;52.70;;;;;;5046971;28;19909;-71
2022/11/15 00:50:48;;;;;;;;;;;19.60;52.60;;;;;;5050310;28;20018;-72
2022/11/15 00:53:13;;;;;;;;;;;19.60;52.50;;;;;;5032576;28;19944;-72
2022/11/15 00:55:39;;;;;;;;;;;19.60;52.70;;;;;;5052971;28;20046;-72
2022/11/15 00:58:04;;;;;;;;;;;19.60;52.50;;;;;;5047397;28;19917;-72
2022/11/15 01:00:30;;;;;;;;;;;19.60;52.40;;;;;;5032902;28;19931;-72
2022/11/15 01:02:55;;;;;;;;;;;19.60;52.40;;;;;;5052428;28;19917;-72
2022/11/15 01:05:20;;;;;;;;;;;19.60;52.30;;;;;;5050286;28;19909;-73
2022/11/15 01:07:46;;;;;;;;;;;19.60;52.30;;;;;;5041461;28;19920;-73
2022/11/15 01:10:11;;;;;;;;;;;19.60;52.40;;;;;;5051134;28;19936;-72
2022/11/15 01:12:37;;;;;;;;;;;19.60;52.20;;;;;;5048258;28;20369;-72
2022/11/15 01:15:03;;;;;;;;;;;19.60;52.10;;;;;;5046984;28;19944;-72
2022/11/15 01:17:28;;;;;;;;;;;19.50;52.00;;;;;;5051777;28;20175;-73
2022/11/15 01:19:54;;;;;;;;;;;19.50;52.00;;;;;;5035233;28;19919;-72
2022/11/15 01:22:19;;;;;;;;;;;19.40;52.10;;;;;;5053074;28;19909;-71
2022/11/15 01:24:45;;;;;;;;;;;19.40;52.30;;;;;;5052936;28;20019;-73
2022/11/15 01:27:10;;;;;;;;;;;19.50;52.20;;;;;;5038668;28;19916;-73
2022/11/15 01:29:35;;;;;;;;;;;19.50;52.10;;;;;;5052243;28;19915;-71
2022/11/15 01:32:01;;;;;;;;;;;19.50;52.10;;;;;;5052603;28;19974;-73
2022/11/15 01:34:26;;;;;;;;;;;19.50;52.20;;;;;;5018608;28;20043;-73
2022/11/15 01:36:52;;;;;;;;;;;19.50;52.10;;;;;;5034207;28;19931;-72
2022/11/15 01:39:17;;;;;;;;;;;19.50;52.00;;;;;;5038027;28;19917;-71
2022/11/15 01:41:43;;;;;;;;;;;19.50;52.00;;;;;;5052879;28;20369;-72
2022/11/15 01:44:27;;;;;;;;;;;19.50;52.00;;;;;;5046745;28;19912;-72
2022/11/15 01:46:52;;;;;;;;;;;19.50;52.00;;;;;;5049455;28;19921;-72
2022/11/15 01:49:19;;;;;;;;;;;19.40;51.90;;;;;;5045253;28;19924;-73
2022/11/15 01:51:44;;;;;;;;;;;19.40;52.10;;;;;;5024631;28;19916;-73
2022/11/15 01:54:10;;;;;;;;;;;19.30;52.00;;;;;;5033366;28;19932;-72
2022/11/15 01:56:38;;;;;;;;;;;19.30;51.90;;;;;;5033212;28;19913;-72
2022/11/15 01:59:04;;;;;;;;;;;19.30;52.00;;;;;;5050345;28;19972;-73
2022/11/15 02:01:30;;;;;;;;;;;19.30;52.00;;;;;;5050142;28;20003;-71
2022/11/15 02:03:59;;;;;;;;;;;19.30;51.90;;;;;;5048570;28;19920;-72
2022/11/15 02:06:25;;;;;;;;;;;19.30;52.00;;;;;;5014267;28;19924;-72
2022/11/15 02:08:50;;;;;;;;;;;19.30;51.90;;;;;;5047969;28;19917;-72
2022/11/15 02:11:16;;;;;;;;;;;19.20;51.90;;;;;;5029613;28;20007;-72
2022/11/15 02:13:41;;;;;;;;;;;19.20;52.10;;;;;;5046351;28;19916;-72
2022/11/15 02:16:16;;;;;;;;;;;19.20;52.20;;;;;;5011388;28;19912;-73
2022/11/15 02:18:42;;;;;;;;;;;19.20;52.10;;;;;;5032393;28;20007;-72
2022/11/15 02:21:11;;;;;;;;;;;19.20;51.90;;;;;;5026161;28;19974;-72
2022/11/15 02:23:55;;;;;;;;;;;19.20;51.90;;;;;;5042269;28;19908;-72
2022/11/15 02:26:42;;;;;;;;;;;19.30;51.90;;;;;;5051981;28;19936;-72
2022/11/15 02:29:11;;;;;;;;;;;19.40;51.70;;;;;;5033301;28;20261;-72
2022/11/15 02:31:45;;;;;;;;;;;19.40;51.50;;;;;;5034598;28;19909;-72
2022/11/15 02:34:23;;;;;;;;;;;19.50;51.20;;;;;;5040837;28;19919;-72
2022/11/15 02:37:09;;;;;;;;;;;19.70;51.10;;;;;;5046321;28;19931;-71
2022/11/15 02:39:55;;;;;;;;;;;19.70;50.90;;;;;;5022786;28;19920;-73
2022/11/15 02:45:13;;;;;;;;;;;19.90;50.60;;;;;;5049854;28;19919;-72
2022/11/15 02:47:41;;;;;;;;;;;20.00;50.40;;;;;;5048294;28;20383;-72
2022/11/15 02:50:08;;;;;;;;;;;20.00;50.20;;;;;;5030213;28;19917;-72
2022/11/15 02:52:33;;;;;;;;;;;20.00;50.20;;;;;;5048190;28;19923;-72
2022/11/15 02:54:59;;;;;;;;;;;20.10;50.10;;;;;;5046705;28;20007;-73
2022/11/15 02:57:28;;;;;;;;;;;20.10;49.90;;;;;;5044020;28;19924;-72
2022/11/15 03:00:00;;;;;;;;;;;20.20;49.80;;;;;;5048696;28;20003;-72
2022/11/15 03:02:31;;;;;;;;;;;20.20;49.70;;;;;;5045545;28;19943;-73
2022/11/15 03:04:57;;;;;;;;;;;20.20;49.60;;;;;;5048400;28;19917;-73
2022/11/15 03:07:25;;;;;;;;;;;20.30;49.60;;;;;;5029248;28;20295;-72
2022/11/15 03:10:10;;;;;;;;;;;20.20;49.50;;;;;;5032442;28;20003;-73
2022/11/15 03:12:43;;;;;;;;;;;20.30;49.50;;;;;;5027330;28;19921;-71
2022/11/15 03:15:10;;;;;;;;;;;20.30;49.40;;;;;;5049231;28;19916;-71
2022/11/15 03:17:38;;;;;;;;;;;20.40;49.40;;;;;;5028224;28;20327;-73
2022/11/15 03:20:04;;;;;;;;;;;20.40;49.40;;;;;;5030058;28;19913;-72
2022/11/15 03:22:30;;;;;;;;;;;20.40;49.30;;;;;;5011404;28;19970;-72
2022/11/15 03:24:57;;;;;;;;;;;20.40;49.30;;;;;;5032370;28;19931;-72
2022/11/15 03:27:23;;;;;;;;;;;20.40;49.20;;;;;;5030939;28;19917;-72
2022/11/15 03:29:58;;;;;;;;;;;20.40;49.20;;;;;;5031345;28;19966;-72
2022/11/15 03:32:25;;;;;;;;;;;20.40;49.20;;;;;;5018239;28;19928;-73
2022/11/15 03:34:52;;;;;;;;;;;20.40;49.10;;;;;;5050182;28;20074;-72
2022/11/15 03:37:17;;;;;;;;;;;20.40;49.10;;;;;;5035212;28;20016;-72
2022/11/15 03:39:42;;;;;;;;;;;20.40;49.10;;;;;;5045198;28;20010;-72
2022/11/15 03:42:11;;;;;;;;;;;20.40;49.10;;;;;;5044953;28;20437;-72
2022/11/15 03:44:41;;;;;;;;;;;20.40;49.10;;;;;;5045475;28;19913;-72
2022/11/15 03:47:06;;;;;;;;;;;20.40;49.10;;;;;;5052481;28;19912;-73
2022/11/15 03:49:33;;;;;;;;;;;20.40;49.00;;;;;;5051670;28;20308;-72
2022/11/15 03:51:59;;;;;;;;;;;20.40;49.10;;;;;;5031515;28;19921;-72
2022/11/15 03:54:24;;;;;;;;;;;20.40;49.10;;;;;;5034675;28;19924;-72
2022/11/15 03:56:50;;;;;;;;;;;20.40;49.10;;;;;;5052248;28;20037;-72
2022/11/15 03:59:15;;;;;;;;;;;20.40;49.10;;;;;;5030361;28;19967;-73
2022/11/15 04:01:41;;;;;;;;;;;20.40;49.10;;;;;;5052987;28;19920;-73
2022/11/15 04:04:06;;;;;;;;;;;20.40;49.00;;;;;;5051270;28;20376;-73
2022/11/15 04:06:31;;;;;;;;;;;20.40;48.90;;;;;;5049692;28;20419;-72
2022/11/15 04:08:57;;;;;;;;;;;20.40;48.90;;;;;;5052095;28;20342;-72
2022/11/15 04:11:22;;;;;;;;;;;20.40;48.90;;;;;;5049777;28;19920;-72
2022/11/15 04:13:48;;;;;;;;;;;20.40;48.90;;;;;;5052713;28;19932;-72
2022/11/15 04:16:13;;;;;;;;;;;20.40;48.80;;;;;;5042833;28;20012;-73
2022/11/15 04:18:39;;;;;;;;;;;20.40;48.80;;;;;;5051760;28;19913;-72
2022/11/15 04:26:20;;;;;;;;;;;20.40;48.80;;;;;;5061030;28;19958;-72
2022/11/15 04:31:30;;;;;;;;;;;20.40;48.80;;;;;;5038814;28;20381;-73
2022/11/15 04:33:55;;;;;;;;;;;20.40;48.80;;;;;;5048428;28;19921;-72
2022/11/15 04:39:05;;;;;;;;;;;20.20;49.00;;;;;;5054058;28;20015;-72
2022/11/15 04:41:30;;;;;;;;;;;20.20;49.20;;;;;;5054100;28;19970;-72
2022/11/15 04:43:56;;;;;;;;;;;20.20;49.20;;;;;;5033843;28;19970;-72
2022/11/15 04:46:22;;;;;;;;;;;20.20;49.20;;;;;;5053029;28;20281;-72
2022/11/15 04:48:47;;;;;;;;;;;20.20;49.20;;;;;;5052781;28;20316;-72
2022/11/15 04:51:12;;;;;;;;;;;20.20;49.20;;;;;;5049676;28;20011;-72
2022/11/15 04:53:38;;;;;;;;;;;20.20;49.20;;;;;;5033533;28;19917;-73
2022/11/15 04:56:03;;;;;;;;;;;20.20;49.10;;;;;;5048940;28;19917;-72
2022/11/15 04:58:29;;;;;;;;;;;20.30;49.20;;;;;;5051402;28;19917;-72
2022/11/15 05:00:54;;;;;;;;;;;20.30;49.10;;;;;;5051120;28;19921;-73
2022/11/15 05:06:04;;;;;;;;;;;20.20;49.10;;;;;;5051457;28;20323;-72
2022/11/15 05:08:29;;;;;;;;;;;20.30;49.10;;;;;;5032501;28;19917;-73
2022/11/15 05:10:55;;;;;;;;;;;20.30;49.70;;;;;;5052368;28;20338;-73
2022/11/15 05:13:20;;;;;;;;;;;20.30;49.00;;;;;;5050945;28;20579;-72
2022/11/15 05:15:46;;;;;;;;;;;20.30;49.00;;;;;;5051002;28;20032;-73
2022/11/15 05:18:12;;;;;;;;;;;20.30;49.00;;;;;;5035291;28;19959;-72
2022/11/15 05:20:38;;;;;;;;;;;20.30;48.90;;;;;;5050969;28;20483;-71
2022/11/15 05:23:03;;;;;;;;;;;20.40;49.00;;;;;;5052253;28;20004;-73
2022/11/15 05:25:29;;;;;;;;;;;20.30;49.00;;;;;;5051177;28;19921;-72
2022/11/15 05:27:54;;;;;;;;;;;20.30;49.00;;;;;;5034261;28;20315;-72
2022/11/15 05:30:19;;;;;;;;;;;20.30;49.10;;;;;;5034040;28;19916;-71
2022/11/15 05:32:45;;;;;;;;;;;20.30;49.10;;;;;;5052461;28;19927;-72
2022/11/15 05:35:21;;;;;;;;;;;20.30;49.10;;;;;;5050307;28;19966;-72
2022/11/15 05:37:47;;;;;;;;;;;20.30;49.10;;;;;;5047971;28;20329;-73
2022/11/15 05:40:12;;;;;;;;;;;20.30;49.10;;;;;;5030631;28;19943;-73
2022/11/15 05:42:38;;;;;;;;;;;20.30;49.10;;;;;;5048148;28;19919;-72
2022/11/15 05:45:04;;;;;;;;;;;20.20;49.00;;;;;;5047569;28;20299;-72
2022/11/15 05:47:30;;;;;;;;;;;20.20;49.20;;;;;;5033512;28;19952;-72
2022/11/15 05:49:55;;;;;;;;;;;20.20;49.20;;;;;;5048715;28;19959;-72
2022/11/15 05:52:22;;;;;;;;;;;20.20;49.20;;;;;;5033428;28;19920;-72
2022/11/15 05:54:47;;;;;;;;;;;20.20;49.10;;;;;;5049257;28;20007;-73
2022/11/15 05:57:13;;;;;;;;;;;20.20;49.20;;;;;;5048558;28;20000;-71
2022/11/15 05:59:40;;;;;;;;;;;20.20;49.20;;;;;;5050405;28;19947;-73
2022/11/15 06:02:05;;;;;;;;;;;20.20;49.20;;;;;;5048630;28;20410;-72
2022/11/15 06:04:31;;;;;;;;;;;20.20;49.10;;;;;;5047500;28;19924;-72
2022/11/15 06:06:57;;;;;;;;;;;20.30;49.10;;;;;;5030527;28;19931;-72
2022/11/15 06:09:24;;;;;;;;;;;20.30;49.00;;;;;;5049467;28;20325;-73
2022/11/15 06:11:49;;;;;;;;;;;20.30;49.00;;;;;;5032309;28;20372;-72
2022/11/15 06:14:15;;;;;;;;;;;20.30;49.00;;;;;;5048757;28;19920;-72
2022/11/15 06:16:40;;;;;;;;;;;20.30;48.90;;;;;;5049803;28;19909;-73
2022/11/15 06:19:06;;;;;;;;;;;20.30;48.90;;;;;;5051542;28;19909;-72
2022/11/15 06:21:31;;;;;;;;;;;20.40;48.90;;;;;;5047562;28;20011;-72
2022/11/15 06:23:57;;;;;;;;;;;20.30;48.90;;;;;;5043956;28;20357;-73
2022/11/15 06:26:22;;;;;;;;;;;20.30;49.00;;;;;;5052143;28;20352;-72
2022/11/15 06:28:48;;;;;;;;;;;20.30;48.90;;;;;;5049580;28;19959;-72
2022/11/15 06:31:13;;;;;;;;;;;20.30;49.00;;;;;;5049090;28;19956;-72
2022/11/15 06:33:39;;;;;;;;;;;20.30;49.70;;;;;;5041043;28;19916;-72
2022/11/15 06:36:05;;;;;;;;;;;20.30;49.00;;;;;;5032407;28;19962;-72
2022/11/15 06:38:30;;;;;;;;;;;20.20;49.00;;;;;;5034114;28;20016;-73
2022/11/15 06:41:02;;;;;;;;;;;20.20;49.10;;;;;;5033824;28;20475;-73
2022/11/15 06:43:28;;;;;;;;;;;20.20;49.20;;;;;;5049635;28;19954;-72
2022/11/15 06:45:53;;;;;;;;;;;20.20;49.90;;;;;;5047390;28;19917;-72
2022/11/15 06:48:19;;;;;;;;;;;20.10;49.20;;;;;;5044563;28;19923;-73
2022/11/15 06:50:50;;;;;;;;;;;20.10;49.10;;;;;;5029068;28;19923;-72
2022/11/15 06:53:15;;;;;;;;;;;20.10;49.20;;;;;;5032631;28;19986;-73
2022/11/15 06:55:41;;;;;;;;;;;20.10;49.20;;;;;;5048054;28;19912;-72
2022/11/15 06:58:06;;;;;;;;;;;20.20;49.20;;;;;;5047025;28;19951;-72
2022/11/15 07:00:31;;;;;;;;;;;20.20;49.20;;;;;;5048937;28;19909;-73
2022/11/15 07:02:59;;;;;;;;;;;20.20;49.10;;;;;;5024118;28;19973;-72
2022/11/15 07:05:24;;;;;;;;;;;20.20;49.00;;;;;;5050409;28;19920;-72
2022/11/15 07:07:53;;;;;;;;;;;20.20;49.00;;;;;;5049219;28;19920;-72
2022/11/15 07:10:19;;;;;;;;;;;20.20;49.00;;;;;;5034110;28;19920;-71
2022/11/15 07:12:48;;;;;;;;;;;20.20;48.90;;;;;;5032825;28;20304;-72
2022/11/15 07:15:15;;;;;;;;;;;20.30;49.10;;;;;;5034027;28;19958;-72
2022/11/15 07:17:41;;;;;;;;;;;20.30;49.00;;;;;;5031655;28;20357;-73
2022/11/15 07:20:06;;;;;;;;;;;20.30;49.00;;;;;;5055235;28;19919;-73
2022/11/15 07:22:32;;;;;;;;;;;20.30;49.00;;;;;;5049779;28;19909;-73
2022/11/15 07:24:57;;;;;;;;;;;20.30;49.00;;;;;;5037441;28;19990;-73
2022/11/15 07:27:23;;;;;;;;;;;20.30;49.10;;;;;;5031095;28;19959;-72
2022/11/15 07:29:48;;;;;;;;;;;20.30;49.00;;;;;;5032280;28;19920;-73
2022/11/15 07:32:13;;;;;;;;;;;20.30;49.00;;;;;;5036519;28;20015;-71
2022/11/15 07:34:39;;;;;;;;;;;20.30;49.10;;;;;;5053688;28;19919;-72
2022/11/15 07:37:04;;;;;;;;;;;20.30;49.10;;;;;;5053907;28;19920;-72
2022/11/15 07:39:31;;;;;;;;;;;20.30;49.20;;;;;;5054234;28;19913;-73
2022/11/15 07:44:42;;;;;;;;;;;20.20;49.20;;;;;;5028983;28;19959;-71
2022/11/15 07:47:08;;;;;;;;;;;20.20;49.30;;;;;;5045688;28;20280;-71
2022/11/15 07:49:33;;;;;;;;;;;20.20;49.40;;;;;;5043702;28;20019;-72
2022/11/15 07:51:59;;;;;;;;;;;20.10;49.70;;;;;;5030521;28;19917;-72
2022/11/15 07:54:24;;;;;;;;;;;20.20;49.80;;;;;;5051151;28;19925;-72
2022/11/15 07:56:50;;;;;;;;;;;20.40;49.60;;;;;;5054025;28;19916;-72
2022/11/15 07:59:15;;;;;;;;;;;20.70;49.40;;;;;;5051834;28;19920;-71
2022/11/15 08:01:40;;;;;;;;;;;20.90;49.00;;;;;;5053912;28;19909;-72
2022/11/15 08:04:06;;;;;;;;;;;21.10;48.70;;;;;;5053626;28;19913;-72
2022/11/15 08:06:31;;;;;;;;;;;21.30;48.30;;;;;;5041546;28;19999;-71
2022/11/15 08:08:57;;;;;;;;;;;21.50;48.10;;;;;;5050122;28;19920;-71
2022/11/15 08:11:22;;;;;;;;;;;21.60;47.70;;;;;;5038995;28;19917;-72
2022/11/15 08:13:48;;;;;;;;;;;21.80;47.50;;;;;;5049177;28;19927;-72
2022/11/15 08:16:13;;;;;;;;;;;21.90;47.20;;;;;;5053837;28;19919;-72
2022/11/15 08:18:38;;;;;;;;;;;22.10;47.20;;;;;;5043916;28;19917;-72
2022/11/15 08:21:04;;;;;;;;;;;22.10;47.00;;;;;;5055261;28;20257;-72
2022/11/15 08:23:29;;;;;;;;;;;22.20;47.00;;;;;;5054744;28;19917;-72
2022/11/15 08:25:59;;;;;;;;;;;22.30;47.00;;;;;;5055305;28;19913;-72
2022/11/15 08:28:24;;;;;;;;;;;22.30;46.80;;;;;;5037597;28;19913;-72
2022/11/15 08:30:50;;;;;;;;;;;22.40;46.90;;;;;;5054830;28;19908;-72
2022/11/15 08:33:15;;;;;;;;;;;22.40;46.90;;;;;;5047511;28;19956;-72
2022/11/15 08:35:41;;;;;;;;;;;22.40;47.00;;;;;;5052786;28;20331;-72
2022/11/15 08:38:06;;;;;;;;;;;22.40;47.10;;;;;;5035808;28;19923;-73
2022/11/15 08:40:32;;;;;;;;;;;22.30;47.10;;;;;;5053561;28;20356;-72
2022/11/15 08:42:58;;;;;;;;;;;22.30;47.80;;;;;;5049299;28;20289;-73
2022/11/15 08:45:24;;;;;;;;;;;22.30;47.10;;;;;;5054664;28;19978;-71
2022/11/15 08:47:49;;;;;;;;;;;22.20;47.30;;;;;;5035192;28;19920;-72
2022/11/15 08:50:15;;;;;;;;;;;22.20;47.40;;;;;;5037495;28;19992;-71
2022/11/15 08:52:40;;;;;;;;;;;22.20;47.60;;;;;;5053522;28;19924;-72
2022/11/15 08:55:06;;;;;;;;;;;22.10;47.60;;;;;;5036788;28;19929;-73
2022/11/15 08:57:31;;;;;;;;;;;22.10;47.70;;;;;;5035676;28;19913;-72
2022/11/15 08:59:57;;;;;;;;;;;22.10;47.80;;;;;;5054575;28;19908;-72
2022/11/15 09:02:22;;;;;;;;;;;22.00;47.80;;;;;;5035821;28;19913;-72
2022/11/15 09:04:48;;;;;;;;;;;22.00;47.90;;;;;;5054445;28;19919;-71
2022/11/15 09:07:13;;;;;;;;;;;22.00;48.00;;;;;;5025158;28;19910;-72
2022/11/15 09:09:39;;;;;;;;;;;22.00;48.00;;;;;;5053673;28;19913;-72
2022/11/15 09:12:05;;;;;;;;;;;22.00;48.10;;;;;;5053455;28;19913;-72
2022/11/15 09:14:30;;;;;;;;;;;22.00;48.10;;;;;;5018658;28;19971;-72
2022/11/15 09:16:55;;;;;;;;;;;21.90;48.10;;;;;;5052869;28;19921;-73
2022/11/15 09:19:21;;;;;;;;;;;22.00;48.20;;;;;;5054048;28;19935;-72
2022/11/15 09:21:46;;;;;;;;;;;21.90;48.20;;;;;;5054471;28;19958;-72
2022/11/15 09:24:12;;;;;;;;;;;21.90;48.20;;;;;;5054215;28;19909;-73
2022/11/15 09:26:37;;;;;;;;;;;21.90;48.30;;;;;;5054269;28;19909;-72
2022/11/15 09:29:03;;;;;;;;;;;21.90;48.30;;;;;;5049901;28;19924;-72
2022/11/15 09:31:29;;;;;;;;;;;22.00;48.30;;;;;;5032899;28;20365;-72
2022/11/15 09:33:54;;;;;;;;;;;22.00;48.20;;;;;;5005782;28;19928;-73
2022/11/15 09:36:20;;;;;;;;;;;22.00;48.10;;;;;;5041494;28;20277;-73
2022/11/15 09:38:45;;;;;;;;;;;22.00;48.00;;;;;;5049380;28;19925;-71
2022/11/15 09:41:11;;;;;;;;;;;22.10;48.00;;;;;;5053275;28;19994;-73
2022/11/15 09:43:45;;;;;;;;;;;22.10;48.00;;;;;;5051669;28;19917;-73
2022/11/15 09:46:20;;;;;;;;;;;22.10;48.10;;;;;;5048017;28;19919;-73
2022/11/15 09:48:47;;;;;;;;;;;22.10;48.10;;;;;;5051615;28;20391;-72
2022/11/15 09:51:33;;;;;;;;;;;22.10;48.10;;;;;;5047528;28;20003;-72
2022/11/15 09:54:19;;;;;;;;;;;22.20;48.20;;;;;;5041988;28;19987;-71
2022/11/15 09:56:44;;;;;;;;;;;22.20;48.30;;;;;;5050495;28;19927;-72
2022/11/15 09:59:16;;;;;;;;;;;22.20;48.30;;;;;;5049965;28;19917;-73
2022/11/15 10:01:52;;;;;;;;;;;22.30;48.20;;;;;;5052756;28;19916;-72
2022/11/15 10:04:17;;;;;;;;;;;22.40;48.20;;;;;;5052884;28;19967;-72
2022/11/15 10:06:55;;;;;;;;;;;22.40;48.10;;;;;;5041242;28;19909;-72
2022/11/15 10:09:29;;;;;;;;;;;22.40;48.10;;;;;;5032423;28;19912;-72
2022/11/15 10:11:54;;;;;;;;;;;22.40;48.10;;;;;;5052275;28;19923;-72
2022/11/15 10:14:21;;;;;;;;;;;22.40;48.10;;;;;;5048019;28;19917;-72
2022/11/15 10:17:05;;;;;;;;;;;22.40;48.10;;;;;;5040602;28;20343;-72
2022/11/15 10:19:42;;;;;;;;;;;22.40;48.10;;;;;;5046087;28;20357;-72
2022/11/15 10:22:27;;;;;;;;;;;22.40;48.00;;;;;;5047819;28;19921;-71
2022/11/15 10:25:13;;;;;;;;;;;22.40;48.00;;;;;;5051916;28;19917;-72
2022/11/15 10:27:39;;;;;;;;;;;22.50;48.10;;;;;;5032818;28;19913;-72
2022/11/15 10:30:06;;;;;;;;;;;22.50;48.00;;;;;;5017497;28;19913;-73
2022/11/15 10:32:32;;;;;;;;;;;22.50;48.00;;;;;;5045152;28;19932;-72
2022/11/15 10:34:57;;;;;;;;;;;22.60;47.90;;;;;;5031881;28;20346;-71
2022/11/15 10:37:29;;;;;;;;;;;22.50;47.80;;;;;;5048372;28;19921;-73
2022/11/15 10:40:27;;;;;;;;;;;22.50;47.90;;;;;;5033958;28;19916;-73
2022/11/15 10:43:19;;;;;;;;;;;22.50;48.00;;;;;;5014189;28;19927;-73
2022/11/15 10:45:44;;;;;;;;;;;22.40;48.10;;;;;;5046430;28;19917;-72
2022/11/15 10:48:13;;;;;;;;;;;22.40;48.30;;;;;;5031382;28;20023;-73
2022/11/15 10:50:42;;;;;;;;;;;22.30;48.20;;;;;;5048511;28;19956;-72
2022/11/15 10:53:21;;;;;;;;;;;22.40;48.40;;;;;;5045697;28;20254;-72
2022/11/15 10:55:47;;;;;;;;;;;22.40;48.20;;;;;;5027920;28;19913;-72
2022/11/15 10:58:33;;;;;;;;;;;22.50;48.20;;;;;;5031152;28;19917;-72
2022/11/15 11:01:17;;;;;;;;;;;22.50;48.20;;;;;;5039014;28;19913;-72
2022/11/15 11:03:43;;;;;;;;;;;22.50;48.10;;;;;;5052998;28;19909;-72
2022/11/15 11:06:13;;;;;;;;;;;22.50;48.10;;;;;;5028066;28;19913;-72
2022/11/15 11:08:38;;;;;;;;;;;22.50;48.30;;;;;;5034228;28;19913;-71
2022/11/15 11:11:04;;;;;;;;;;;22.50;48.30;;;;;;5031320;28;19938;-73
2022/11/15 11:13:30;;;;;;;;;;;22.50;48.30;;;;;;5030355;28;20007;-73
2022/11/15 11:16:01;;;;;;;;;;;22.50;48.30;;;;;;5051335;28;19935;-72
2022/11/15 11:18:39;;;;;;;;;;;22.50;48.20;;;;;;5034263;28;19913;-72
2022/11/15 11:21:08;;;;;;;;;;;22.50;48.20;;;;;;5052039;28;19913;-72
2022/11/15 11:23:52;;;;;;;;;;;22.50;48.20;;;;;;5029846;28;19917;-72
2022/11/15 11:26:38;;;;;;;;;;;22.60;48.20;;;;;;5052322;28;19909;-73
2022/11/15 11:29:03;;;;;;;;;;;22.60;48.10;;;;;;5011863;28;19917;-73
2022/11/15 11:31:32;;;;;;;;;;;22.60;48.10;;;;;;5040408;28;19921;-73
2022/11/15 11:34:23;;;;;;;;;;;22.60;48.70;;;;;;5034385;28;20426;-73
2022/11/15 11:37:08;;;;;;;;;;;22.60;48.10;;;;;;5030172;28;19931;-73
2022/11/15 11:39:41;;;;;;;;;;;22.60;48.20;;;;;;5020213;28;20424;-72
2022/11/15 11:42:26;;;;;;;;;;;22.60;48.10;;;;;;5031655;28;20007;-72
2022/11/15 11:44:51;;;;;;;;;;;22.60;48.00;;;;;;5046798;28;20437;-72
2022/11/15 11:47:24;;;;;;;;;;;22.70;48.10;;;;;;5048869;28;20047;-73
2022/11/15 11:49:57;;;;;;;;;;;22.70;48.10;;;;;;5034567;28;20190;-72
2022/11/15 11:52:22;;;;;;;;;;;22.60;48.10;;;;;;5032741;28;19939;-73
2022/11/15 11:54:54;;;;;;;;;;;22.50;48.20;;;;;;5031928;28;20382;-72
2022/11/15 11:57:29;;;;;;;;;;;22.50;48.40;;;;;;5034633;28;19960;-73
2022/11/15 12:00:09;;;;;;;;;;;22.50;48.50;;;;;;5033438;28;19971;-73
2022/11/15 12:02:37;;;;;;;;;;;22.50;48.60;;;;;;5032745;28;19948;-73
2022/11/15 12:05:04;;;;;;;;;;;22.50;48.50;;;;;;5033964;28;19937;-72
2022/11/15 12:07:31;;;;;;;;;;;22.60;48.40;;;;;;5023954;28;19912;-72
2022/11/15 12:10:04;;;;;;;;;;;22.60;48.30;;;;;;5032022;28;20031;-72
2022/11/15 12:12:31;;;;;;;;;;;22.60;48.30;;;;;;5051001;28;19932;-73
2022/11/15 12:15:09;;;;;;;;;;;22.70;48.30;;;;;;5051888;28;19912;-72
2022/11/15 12:17:34;;;;;;;;;;;22.70;48.30;;;;;;5047934;28;20293;-73
2022/11/15 12:20:03;;;;;;;;;;;22.70;48.30;;;;;;5024960;28;19909;-72
2022/11/15 12:22:28;;;;;;;;;;;22.70;48.30;;;;;;5048421;28;19935;-73
2022/11/15 12:25:01;;;;;;;;;;;22.70;48.30;;;;;;5051678;28;19955;-72
2022/11/15 12:27:37;;;;;;;;;;;22.70;48.40;;;;;;5050799;28;20265;-72
2022/11/15 12:30:04;;;;;;;;;;;22.70;48.50;;;;;;5034843;28;19913;-71
2022/11/15 12:32:31;;;;;;;;;;;22.70;48.30;;;;;;5050644;28;19912;-72
2022/11/15 12:34:56;;;;;;;;;;;22.80;48.40;;;;;;5034988;28;19920;-73
2022/11/15 12:37:46;;;;;;;;;;;22.80;48.30;;;;;;5023384;28;19921;-72
2022/11/15 12:40:28;;;;;;;;;;;22.80;48.30;;;;;;5014623;28;20357;-72
2022/11/15 12:42:57;;;;;;;;;;;22.80;48.30;;;;;;5050740;28;19913;-73
2022/11/15 12:45:43;;;;;;;;;;;22.80;48.40;;;;;;5029266;28;19920;-72
2022/11/15 12:48:15;;;;;;;;;;;22.80;48.30;;;;;;5052224;28;19917;-72
2022/11/15 12:50:58;;;;;;;;;;;22.80;48.30;;;;;;5051959;28;19909;-72
2022/11/15 12:53:24;;;;;;;;;;;22.80;48.40;;;;;;5034230;28;19916;-73
2022/11/15 12:56:01;;;;;;;;;;;22.80;48.40;;;;;;5053547;28;20365;-72
2022/11/15 12:58:28;;;;;;;;;;;22.80;48.40;;;;;;5048366;28;19960;-72
2022/11/15 13:00:54;;;;;;;;;;;22.80;48.50;;;;;;5026882;28;20372;-72
2022/11/15 13:03:23;;;;;;;;;;;22.80;48.50;;;;;;5050463;28;20007;-72
2022/11/15 13:05:53;;;;;;;;;;;22.80;48.60;;;;;;5010443;28;20281;-72
2022/11/15 13:08:54;;;;;;;;;;;22.70;48.70;;;;;;5034287;28;19912;-71
2022/11/15 13:11:39;;;;;;;;;;;22.70;48.80;;;;;;4945282;28;20009;-72
2022/11/15 13:14:25;;;;;;;;;;;22.70;48.90;;;;;;5033358;28;19928;-72
2022/11/15 13:16:56;;;;;;;;;;;22.70;48.90;;;;;;5049901;28;19916;-72
2022/11/15 13:19:22;;;;;;;;;;;22.70;49.60;;;;;;5032411;28;19920;-72
2022/11/15 13:24:32;;;;;;;;;;;22.70;48.80;;;;;;5033958;28;19923;-72
2022/11/15 13:26:57;;;;;;;;;;;22.80;48.80;;;;;;5032311;28;19921;-73
2022/11/15 13:29:22;;;;;;;;;;;22.80;48.80;;;;;;5032722;28;19948;-71
2022/11/15 13:31:48;;;;;;;;;;;22.80;48.70;;;;;;5051538;28;19912;-73
2022/11/15 13:34:15;;;;;;;;;;;22.90;48.80;;;;;;5051914;28;20662;-72
2022/11/15 13:36:41;;;;;;;;;;;22.80;48.70;;;;;;5045336;28;19925;-72
2022/11/15 13:39:25;;;;;;;;;;;22.80;48.70;;;;;;5049405;28;19939;-72
2022/11/15 13:41:50;;;;;;;;;;;22.80;48.70;;;;;;5047546;28;20030;-72
2022/11/15 13:44:29;;;;;;;;;;;22.80;48.80;;;;;;5050840;28;20011;-71
2022/11/15 13:47:05;;;;;;;;;;;22.90;48.80;;;;;;5032304;28;19939;-71
2022/11/15 13:49:31;;;;;;;;;;;22.90;48.90;;;;;;5025220;28;19913;-72
2022/11/15 13:51:57;;;;;;;;;;;22.80;48.70;;;;;;5025046;28;20019;-72
2022/11/15 13:54:34;;;;;;;;;;;22.90;48.80;;;;;;5044655;28;20019;-72
2022/11/15 13:57:03;;;;;;;;;;;22.90;48.80;;;;;;5045178;28;19924;-71
2022/11/15 13:59:36;;;;;;;;;;;22.90;48.70;;;;;;5016131;28;19920;-72
2022/11/15 14:02:03;;;;;;;;;;;22.90;48.70;;;;;;5023357;28;19913;-71
2022/11/15 14:04:34;;;;;;;;;;;22.90;48.90;;;;;;5051235;28;19916;-71
2022/11/15 14:06:59;;;;;;;;;;;22.80;48.90;;;;;;5037618;28;20019;-72
2022/11/15 14:09:35;;;;;;;;;;;22.80;48.90;;;;;;5051803;28;19959;-73
2022/11/15 14:12:01;;;;;;;;;;;22.80;48.80;;;;;;5050607;28;19921;-72
2022/11/15 14:14:27;;;;;;;;;;;22.90;48.90;;;;;;5034115;28;20594;-72
2022/11/15 14:16:55;;;;;;;;;;;22.90;48.90;;;;;;5027970;28;19925;-73
2022/11/15 14:19:20;;;;;;;;;;;22.90;49.00;;;;;;5015067;28;19919;-72
2022/11/15 14:22:04;;;;;;;;;;;22.80;49.00;;;;;;5049846;28;19913;-72
2022/11/15 14:24:31;;;;;;;;;;;22.70;49.00;;;;;;5045567;28;20249;-72
2022/11/15 14:26:56;;;;;;;;;;;22.70;49.20;;;;;;5051601;28;19991;-72
2022/11/15 14:29:25;;;;;;;;;;;22.70;49.30;;;;;;5042214;28;20361;-73
2022/11/15 14:31:51;;;;;;;;;;;22.80;49.30;;;;;;5010357;28;19923;-72
2022/11/15 14:34:16;;;;;;;;;;;22.80;49.10;;;;;;5024615;28;19927;-72
2022/11/15 14:36:42;;;;;;;;;;;22.80;49.00;;;;;;5050725;28;19999;-73
2022/11/15 14:39:08;;;;;;;;;;;22.90;49.10;;;;;;5044591;28;19986;-72
2022/11/15 14:41:39;;;;;;;;;;;22.80;49.00;;;;;;5051521;28;19908;-71
2022/11/15 14:44:05;;;;;;;;;;;22.80;49.00;;;;;;5032925;28;19913;-72
2022/11/15 14:46:30;;;;;;;;;;;22.80;49.10;;;;;;5050155;28;20003;-72